Sheppard Air Force Base-Wichita Falls Municipal Airport
KSPS : rendu visible

Aérodrome :











RETROUVEZ-NOUS SUR...

 
LOGIN :

S'inscrire | Disclaimer

   EN    FR    IT 

 









Légende :    VFR   VFR Marginal   IFR   IFR Intensif   IFR Très Intensif
Visi : 
Plafond : 
>= 8 km
>= 3000ft
5 à 8 km
1000 à 3000 ft
1500m à 5 km
500 à 1000 ft
800 à 1500m
200 à 500 ft
< 800m
< 200 ft
Symboles :   Orages  Brouillard  Fortes neiges  Fortes précipitations  Vent > 20 kt






- Altitude de l'aérodrome : 1019 ft
- Code IATA : SPS


KSPS - Sheppard Air Force Base-Wichita Falls Municipal

DERNIER METAR :
  • 271752Z 22011G16KT 10SM CLR 13/M06 A3027 RMK AO2 SLP254 T01281061 10128 21044 58016

METARs EXPIRÉS :
  • 271652Z 23014KT 10SM CLR 11/M06 A3030 RMK AO2 SLP264 T01061061
  • 271552Z 21012KT 10SM CLR 07/M06 A3032 RMK AO2 SLP271 T00671061

TAF KSPS
Valide du 27 à 18h jusqu'au 28 à 18h UTC


271720Z 2718/2818 22014G20KT P6SM SKC
FM272300 23008KT P6SM SKC
FM280200 34006KT P6SM SKC
FM281200 30005KT P6SM SKC



MET'MAP, la Météo Aéronautique d'un coup d'oeil ! - Copyright ORBIFLY Décembre 2007 - Disclaimer

ORBIFLY MET'MAP TEAM :

Programmation & Développement : Alexandra Zaïnal
Sur une idée originale de : Baudouin d'Aumeries
Assistance à la programmation : Marc-Olivier Méhu
Soutien technique & logistique : Manuel Goepfert

Contact : metmap@orbifly.com




SOURCES & CREDITS :

   NOAA       Earth
Advisory